Time;durP1;ratioP1;P1;durP2;ratioP2;P2;SDS_P1;SDS_P2;PMS_P1;PMS_P2;Temp;Humidity;BMP_temperature;BMP_pressure;BME280_temperature;BME280_humidity;BME280_pressure;Samples;Min_cycle;Max_cycle;Signal;HPM_P1;HPM_P2
2020/12/24 00:01:16;;;;;;;14.52;1.77;;;5.10;99.90;;;;;;4725094;30;20052;-87
2020/12/24 00:03:42;;;;;;;15.20;1.27;;;5.20;99.90;;;;;;4733613;30;20054;-88
2020/12/24 00:06:08;;;;;;;10.15;1.88;;;5.10;99.90;;;;;;4734256;30;20533;-86
2020/12/24 00:08:34;;;;;;;14.10;1.55;;;5.10;99.90;;;;;;4719752;30;20044;-89
2020/12/24 00:11:00;;;;;;;4.10;0.70;;;5.10;99.90;;;;;;4720243;30;20044;-88
2020/12/24 00:13:27;;;;;;;8.95;1.30;;;5.10;99.90;;;;;;4750874;30;20041;-85
2020/12/24 00:15:53;;;;;;;2.75;0.35;;;5.10;99.90;;;;;;4717501;30;20118;-86
2020/12/24 00:18:19;;;;;;;9.50;1.60;;;5.10;99.90;;;;;;4716828;30;20044;-86
2020/12/24 00:20:47;;;;;;;5.78;0.82;;;5.10;99.90;;;;;;4750081;30;20113;-89
2020/12/24 00:23:13;;;;;;;8.75;1.08;;;5.10;99.90;;;;;;4734252;30;20105;-87
2020/12/24 00:25:39;;;;;;;8.65;1.73;;;5.10;99.90;;;;;;4750303;30;20048;-85
2020/12/24 00:28:06;;;;;;;2.28;0.88;;;5.10;99.90;;;;;;4733584;30;20059;-86
2020/12/24 00:30:31;;;;;;;3.83;0.45;;;5.00;99.90;;;;;;4734273;30;20056;-87
2020/12/24 00:32:57;;;;;;;10.70;1.17;;;5.00;99.90;;;;;;4705105;30;20055;-85
2020/12/24 00:35:23;;;;;;;3.30;0.73;;;5.10;99.90;;;;;;4734485;30;20452;-86
2020/12/24 00:37:49;;;;;;;4.03;0.93;;;5.00;99.90;;;;;;4750632;30;20049;-89
2020/12/24 00:40:15;;;;;;;8.25;0.82;;;5.00;99.90;;;;;;4737892;30;20409;-86
2020/12/24 00:42:40;;;;;;;13.30;2.38;;;5.00;99.90;;;;;;4723591;30;20127;-87
2020/12/24 00:45:06;;;;;;;11.20;1.33;;;5.00;99.90;;;;;;4723101;30;20036;-86
2020/12/24 00:47:32;;;;;;;7.18;1.33;;;5.00;99.90;;;;;;4723571;30;20481;-86
2020/12/24 00:49:58;;;;;;;6.70;1.00;;;5.10;99.90;;;;;;4722562;30;20051;-86
2020/12/24 00:52:24;;;;;;;4.82;1.05;;;5.00;99.90;;;;;;4738006;30;20482;-87
2020/12/24 00:54:50;;;;;;;4.82;0.77;;;5.00;99.90;;;;;;4749198;30;20446;-89
2020/12/24 00:57:15;;;;;;;2.75;0.60;;;5.00;99.90;;;;;;4737486;30;20048;-86
2020/12/24 00:59:41;;;;;;;6.82;0.80;;;5.00;99.90;;;;;;4738132;30;20059;-86
2020/12/24 01:02:08;;;;;;;8.43;1.15;;;4.90;99.90;;;;;;4720709;30;20121;-86
2020/12/24 01:04:33;;;;;;;6.65;1.05;;;5.00;99.90;;;;;;4722527;30;20048;-86
2020/12/24 01:06:59;;;;;;;1.88;0.45;;;4.90;99.90;;;;;;4736456;30;21295;-85
2020/12/24 01:09:25;;;;;;;6.13;0.70;;;4.90;99.90;;;;;;4752036;30;20047;-85
2020/12/24 01:11:51;;;;;;;1.30;0.60;;;4.90;99.90;;;;;;4734289;30;20059;-90
2020/12/24 01:14:17;;;;;;;9.63;1.05;;;4.90;99.90;;;;;;4721546;30;20044;-86
2020/12/24 01:16:43;;;;;;;9.18;1.00;;;4.90;99.90;;;;;;4733047;30;20453;-86
2020/12/24 01:19:09;;;;;;;5.07;1.40;;;4.80;99.90;;;;;;4706685;30;20052;-85
2020/12/24 01:21:35;;;;;;;1.85;0.60;;;4.90;99.90;;;;;;4719290;30;20090;-87
2020/12/24 01:24:00;;;;;;;2.80;0.77;;;4.90;99.90;;;;;;4736574;30;20048;-86
2020/12/24 01:26:29;;;;;;;3.15;0.60;;;4.90;99.90;;;;;;4749548;30;20917;-86
2020/12/24 01:28:55;;;;;;;3.72;0.98;;;4.90;99.90;;;;;;4722001;30;20072;-86
2020/12/24 01:31:21;;;;;;;5.20;0.60;;;4.90;99.90;;;;;;4752672;30;20078;-86
2020/12/24 01:33:47;;;;;;;7.55;1.73;;;4.90;99.90;;;;;;4722574;30;20044;-86
2020/12/24 01:36:13;;;;;;;5.75;0.95;;;4.90;99.90;;;;;;4721773;30;20054;-86
2020/12/24 01:38:40;;;;;;;3.05;0.82;;;4.90;99.90;;;;;;4736820;30;20082;-86
2020/12/24 01:41:05;;;;;;;4.63;1.00;;;4.90;99.90;;;;;;4721514;30;20099;-86
2020/12/24 01:43:31;;;;;;;6.10;1.10;;;4.90;99.90;;;;;;4722222;30;20482;-87
2020/12/24 01:45:58;;;;;;;2.08;0.60;;;4.90;99.90;;;;;;4722039;30;20058;-88
2020/12/24 01:48:25;;;;;;;0.90;0.43;;;4.90;99.90;;;;;;4722036;30;20052;-87
2020/12/24 01:50:50;;;;;;;11.68;1.42;;;4.90;99.90;;;;;;4722464;30;20060;-86
2020/12/24 01:53:25;;;;;;;2.90;1.00;;;4.90;99.90;;;;;;4721501;30;20769;-86
2020/12/24 01:55:54;;;;;;;6.90;0.88;;;4.90;99.90;;;;;;4721923;30;20135;-86
2020/12/24 01:58:20;;;;;;;5.53;1.15;;;4.90;99.90;;;;;;4735770;30;20079;-86
2020/12/24 02:00:47;;;;;;;6.70;1.00;;;4.90;99.90;;;;;;4736330;30;20052;-87
2020/12/24 02:03:16;;;;;;;4.50;1.10;;;4.90;99.90;;;;;;4751432;30;20118;-87
2020/12/24 02:05:42;;;;;;;10.07;2.08;;;4.90;99.90;;;;;;4736851;30;20068;-87
2020/12/24 02:08:09;;;;;;;10.98;0.82;;;4.90;99.90;;;;;;4752380;30;20051;-88
2020/12/24 02:10:35;;;;;;;7.53;2.55;;;4.90;99.90;;;;;;4707340;30;20052;-85
2020/12/24 02:13:01;;;;;;;7.22;1.23;;;4.80;99.90;;;;;;4720290;30;20052;-87
2020/12/24 02:15:27;;;;;;;14.90;1.80;;;4.70;99.90;;;;;;4721061;30;20417;-85
2020/12/24 02:17:55;;;;;;;3.35;0.68;;;4.70;99.90;;;;;;4720959;30;20052;-86
2020/12/24 02:20:21;;;;;;;4.38;0.90;;;4.80;99.90;;;;;;4707327;30;20509;-85
2020/12/24 02:22:47;;;;;;;1.23;0.40;;;4.70;99.90;;;;;;4721242;30;20040;-86
2020/12/24 02:25:13;;;;;;;1.00;0.40;;;4.70;99.90;;;;;;4735886;30;20062;-86
2020/12/24 02:27:38;;;;;;;6.28;1.15;;;4.70;99.90;;;;;;4721663;30;20141;-86
2020/12/24 02:30:04;;;;;;;2.13;0.50;;;4.60;99.90;;;;;;4751827;30;20105;-88
2020/12/24 02:32:30;;;;;;;7.32;0.60;;;4.60;99.90;;;;;;4736378;30;20044;-86
2020/12/24 02:34:56;;;;;;;6.90;1.25;;;4.50;99.90;;;;;;4752016;30;20569;-85
2020/12/24 02:37:23;;;;;;;0.13;0.10;;;4.40;99.90;;;;;;4721737;30;20052;-86
2020/12/24 02:39:52;;;;;;;6.70;0.90;;;4.30;99.90;;;;;;4721907;30;20409;-85
2020/12/24 02:42:19;;;;;;;7.63;0.80;;;4.30;99.90;;;;;;4752037;30;20175;-85
2020/12/24 02:44:45;;;;;;;24.85;0.75;;;4.20;99.90;;;;;;4721777;30;20056;-84
2020/12/24 02:47:11;;;;;;;5.97;0.70;;;4.20;99.90;;;;;;4742322;30;20471;-85
2020/12/24 02:49:38;;;;;;;4.43;0.75;;;4.20;99.90;;;;;;4740274;30;20135;-85
2020/12/24 02:52:05;;;;;;;3.33;0.77;;;4.10;99.90;;;;;;4734196;30;20131;-87
2020/12/24 02:54:31;;;;;;;5.30;0.70;;;4.10;99.90;;;;;;4751547;30;20087;-85
2020/12/24 02:56:59;;;;;;;7.35;1.15;;;4.10;99.90;;;;;;4735461;30;20067;-88
2020/12/24 02:59:25;;;;;;;9.80;1.27;;;4.10;99.90;;;;;;4721603;30;20064;-85
2020/12/24 03:01:50;;;;;;;11.18;0.80;;;4.10;99.90;;;;;;4735154;30;20067;-87
2020/12/24 03:04:16;;;;;;;11.07;1.00;;;4.10;99.90;;;;;;4735450;30;20450;-86
2020/12/24 03:06:42;;;;;;;2.92;0.60;;;4.10;99.90;;;;;;4735775;30;20048;-85
2020/12/24 03:09:07;;;;;;;1.50;0.30;;;4.00;99.90;;;;;;4734999;30;20054;-86
2020/12/24 03:11:40;;;;;;;3.65;0.65;;;4.10;99.90;;;;;;4736049;30;20056;-87
2020/12/24 03:14:06;;;;;;;2.53;0.55;;;4.00;99.90;;;;;;4735154;30;20044;-87
2020/12/24 03:16:32;;;;;;;10.35;0.82;;;4.00;99.90;;;;;;4722250;30;20047;-86
2020/12/24 03:18:58;;;;;;;2.95;0.50;;;4.00;99.90;;;;;;4751855;30;20056;-87
2020/12/24 03:21:24;;;;;;;7.50;0.82;;;4.00;99.90;;;;;;4720682;30;20050;-86
2020/12/24 03:23:54;;;;;;;11.98;0.52;;;4.00;99.90;;;;;;4734381;30;20052;-87
2020/12/24 03:26:19;;;;;;;12.43;0.90;;;4.10;99.90;;;;;;4718709;30;20048;-85
2020/12/24 03:28:45;;;;;;;6.45;0.85;;;4.00;99.90;;;;;;4733971;30;20063;-86
2020/12/24 03:31:11;;;;;;;6.32;0.82;;;4.10;99.90;;;;;;4733649;30;20052;-85
2020/12/24 03:33:37;;;;;;;9.35;0.70;;;4.10;99.90;;;;;;4734289;30;20059;-85
2020/12/24 03:36:02;;;;;;;10.15;1.02;;;4.10;99.90;;;;;;4750199;30;20056;-91
2020/12/24 03:38:28;;;;;;;7.32;0.82;;;4.10;99.90;;;;;;4735177;30;20136;-84
2020/12/24 03:40:54;;;;;;;7.57;0.80;;;4.20;99.90;;;;;;4735577;30;20059;-85
2020/12/24 03:43:19;;;;;;;3.97;0.75;;;4.10;99.90;;;;;;4734558;30;20056;-85
2020/12/24 03:45:45;;;;;;;8.02;0.95;;;4.10;99.90;;;;;;4734463;30;20060;-84
2020/12/24 03:48:11;;;;;;;5.30;0.80;;;4.10;99.90;;;;;;4738367;30;20090;-85
2020/12/24 03:50:37;;;;;;;6.28;0.43;;;4.10;99.90;;;;;;4749982;30;20076;-85
2020/12/24 03:53:02;;;;;;;6.68;0.70;;;4.10;99.90;;;;;;4719289;30;20052;-87
2020/12/24 03:55:28;;;;;;;4.32;0.68;;;4.10;99.90;;;;;;4719231;30;20111;-84
2020/12/24 03:57:54;;;;;;;9.98;1.20;;;4.00;99.90;;;;;;4733799;30;20131;-85
2020/12/24 04:00:20;;;;;;;7.38;0.90;;;4.00;99.90;;;;;;4733901;30;20113;-85
2020/12/24 04:02:46;;;;;;;11.23;0.93;;;4.10;99.90;;;;;;4719875;30;20048;-85
2020/12/24 04:05:12;;;;;;;15.68;1.20;;;4.10;99.90;;;;;;4733718;30;20482;-87
2020/12/24 04:07:38;;;;;;;9.35;0.98;;;4.20;99.90;;;;;;4734350;30;20051;-85
2020/12/24 04:10:03;;;;;;;6.82;0.98;;;4.20;99.90;;;;;;4734285;30;20784;-88
2020/12/24 04:12:29;;;;;;;5.07;0.77;;;4.20;99.90;;;;;;4733626;30;20044;-85
2020/12/24 04:14:55;;;;;;;13.35;1.63;;;4.30;99.90;;;;;;4733749;30;20086;-85
2020/12/24 04:17:21;;;;;;;5.63;0.70;;;4.30;99.90;;;;;;4719712;30;20048;-87
2020/12/24 04:19:47;;;;;;;5.70;0.80;;;4.30;99.90;;;;;;4735309;30;20384;-86
2020/12/24 04:22:12;;;;;;;8.15;0.93;;;4.30;99.90;;;;;;4734306;30;20469;-86
2020/12/24 04:24:38;;;;;;;9.75;0.82;;;4.20;99.90;;;;;;4734706;30;20462;-85
2020/12/24 04:27:04;;;;;;;9.98;0.82;;;4.30;99.90;;;;;;4734999;30;20614;-86
2020/12/24 04:29:33;;;;;;;7.97;0.90;;;4.30;99.90;;;;;;4719982;30;20060;-86
2020/12/24 04:31:58;;;;;;;4.35;0.77;;;4.30;99.90;;;;;;4734663;30;20045;-85
2020/12/24 04:34:24;;;;;;;15.00;1.08;;;4.40;99.90;;;;;;4733852;30;20059;-89
2020/12/24 04:36:50;;;;;;;8.68;0.90;;;4.40;99.90;;;;;;4720140;30;20127;-85
2020/12/24 04:39:19;;;;;;;7.75;0.80;;;4.40;99.90;;;;;;4733278;30;20049;-85
2020/12/24 04:41:46;;;;;;;3.95;0.57;;;4.40;99.90;;;;;;4719390;30;20127;-85
2020/12/24 04:44:13;;;;;;;12.88;1.00;;;4.40;99.90;;;;;;4719021;30;20056;-87
2020/12/24 04:46:42;;;;;;;5.88;0.85;;;4.40;99.90;;;;;;4734591;30;20055;-85
2020/12/24 04:49:09;;;;;;;2.58;0.93;;;4.30;99.90;;;;;;4733698;30;20110;-90
2020/12/24 04:51:36;;;;;;;6.82;0.80;;;4.40;99.90;;;;;;4733617;30;20079;-85
2020/12/24 04:54:08;;;;;;;7.28;1.30;;;4.40;99.90;;;;;;4734055;30;20044;-84
2020/12/24 04:56:36;;;;;;;8.30;1.27;;;4.40;99.90;;;;;;4749768;30;20438;-87
2020/12/24 04:59:02;;;;;;;6.32;0.77;;;4.30;99.90;;;;;;4733960;30;20044;-85
2020/12/24 05:01:28;;;;;;;10.32;1.23;;;4.30;99.90;;;;;;4699389;30;20910;-86
2020/12/24 05:03:55;;;;;;;7.10;1.38;;;4.30;99.90;;;;;;4725623;30;20057;-85
2020/12/24 05:06:21;;;;;;;13.02;0.80;;;4.30;99.90;;;;;;4726425;30;20410;-85
2020/12/24 05:08:55;;;;;;;6.68;0.70;;;4.40;99.90;;;;;;4734017;30;20101;-86
2020/12/24 05:11:31;;;;;;;5.93;0.90;;;4.30;99.90;;;;;;4733597;30;20044;-87
2020/12/24 05:14:17;;;;;;;6.88;0.70;;;4.40;99.90;;;;;;4718988;30;20041;-86
2020/12/24 05:16:57;;;;;;;9.57;0.88;;;4.30;99.90;;;;;;4732385;30;20052;-86
2020/12/24 05:19:24;;;;;;;5.00;0.50;;;4.30;99.90;;;;;;4730620;30;20048;-86
2020/12/24 05:21:50;;;;;;;10.85;1.92;;;4.30;99.90;;;;;;4719481;30;20055;-85
2020/12/24 05:24:27;;;;;;;6.68;0.80;;;4.20;99.90;;;;;;4733162;30;20052;-86
2020/12/24 05:27:08;;;;;;;5.75;0.70;;;4.30;99.90;;;;;;4736232;30;20534;-85
2020/12/24 05:29:37;;;;;;;4.15;0.95;;;4.30;99.90;;;;;;4736348;30;20641;-85
2020/12/24 05:32:04;;;;;;;3.97;0.70;;;4.30;99.90;;;;;;4753788;30;20489;-85
2020/12/24 05:34:30;;;;;;;4.40;1.30;;;4.30;99.90;;;;;;4735626;30;20576;-86
2020/12/24 05:37:15;;;;;;;7.68;1.30;;;4.30;99.90;;;;;;4722094;30;20134;-85
2020/12/24 05:39:44;;;;;;;11.20;1.38;;;4.20;99.90;;;;;;4736507;30;20048;-84
2020/12/24 05:42:12;;;;;;;5.05;0.88;;;4.20;99.90;;;;;;4722336;30;20602;-86
2020/12/24 05:44:39;;;;;;;7.90;1.42;;;4.20;99.90;;;;;;4735985;30;20482;-86
2020/12/24 05:47:05;;;;;;;5.28;1.08;;;4.20;99.90;;;;;;4736470;30;20047;-85
2020/12/24 05:49:32;;;;;;;6.63;0.88;;;4.10;99.90;;;;;;4751214;30;20059;-85
2020/12/24 05:51:58;;;;;;;7.28;1.05;;;4.10;99.90;;;;;;4736969;30;20421;-86
2020/12/24 05:54:29;;;;;;;11.65;1.85;;;4.10;99.90;;;;;;4751873;30;20067;-87
2020/12/24 05:56:56;;;;;;;5.45;1.27;;;4.00;99.90;;;;;;4752599;30;20044;-85
2020/12/24 05:59:24;;;;;;;10.23;2.15;;;4.00;99.90;;;;;;4721662;30;20056;-86
2020/12/24 06:02:14;;;;;;;6.75;1.35;;;4.10;99.90;;;;;;4736822;30;20055;-85
2020/12/24 06:04:47;;;;;;;7.13;1.42;;;4.00;99.90;;;;;;4735693;30;20052;-86
2020/12/24 06:07:35;;;;;;;5.15;1.33;;;4.00;99.90;;;;;;4736214;30;20048;-86
2020/12/24 06:10:08;;;;;;;15.68;2.30;;;4.00;99.90;;;;;;4721723;30;20052;-86
2020/12/24 06:12:51;;;;;;;16.60;2.20;;;4.00;99.90;;;;;;4751936;30;20155;-87
2020/12/24 06:15:17;;;;;;;5.38;1.83;;;4.00;99.90;;;;;;4736180;30;20048;-90
2020/12/24 06:17:45;;;;;;;10.98;3.10;;;4.00;99.90;;;;;;4751817;30;20083;-85
2020/12/24 06:20:18;;;;;;;13.30;3.67;;;4.00;99.90;;;;;;4735844;30;20050;-84
2020/12/24 06:22:43;;;;;;;12.63;1.80;;;4.00;99.90;;;;;;4762431;30;20127;-85
2020/12/24 06:25:11;;;;;;;8.18;1.42;;;4.00;99.90;;;;;;4735316;30;20119;-86
2020/12/24 06:27:50;;;;;;;10.82;1.35;;;4.00;99.90;;;;;;4735438;30;20044;-86
2020/12/24 06:30:28;;;;;;;14.30;1.92;;;4.10;99.90;;;;;;4751937;30;20098;-86
2020/12/24 06:32:55;;;;;;;11.60;1.17;;;4.20;99.90;;;;;;4721200;30;20205;-87
2020/12/24 06:35:29;;;;;;;9.55;1.38;;;4.30;99.90;;;;;;4720096;30;20517;-90
2020/12/24 06:37:55;;;;;;;13.77;1.58;;;4.30;99.90;;;;;;4751705;30;20422;-88
2020/12/24 06:40:29;;;;;;;10.13;1.48;;;4.30;99.90;;;;;;4721105;30;20078;-91
2020/12/24 06:42:55;;;;;;;11.50;1.60;;;4.40;99.90;;;;;;4736021;30;20048;-87
2020/12/24 06:45:21;;;;;;;9.48;1.30;;;4.40;99.90;;;;;;4751856;30;20410;-90
2020/12/24 06:48:15;;;;;;;16.05;1.23;;;4.50;99.90;;;;;;4747137;30;20098;-87
2020/12/24 06:50:46;;;;;;;22.52;2.13;;;4.50;99.90;;;;;;4748130;30;20048;-86
2020/12/24 06:53:27;;;;;;;;;;;4.50;99.90;;;;;;4736178;30;20044;-86
2020/12/24 06:56:14;;;;;;;8.60;1.00;;;4.40;99.90;;;;;;4751487;30;20441;-86
2020/12/24 06:58:45;;;;;;;15.15;1.13;;;4.50;99.90;;;;;;4750872;30;20063;-85
2020/12/24 07:01:16;;;;;;;12.18;1.00;;;4.50;99.90;;;;;;4751230;30;20048;-86
2020/12/24 07:03:42;;;;;;;9.75;0.93;;;4.60;99.90;;;;;;4734965;30;20040;-87
2020/12/24 07:06:09;;;;;;;7.93;0.65;;;4.50;99.90;;;;;;4721121;30;20489;-88
2020/12/24 07:08:34;;;;;;;13.18;0.73;;;4.50;99.90;;;;;;4734869;30;20052;-87
2020/12/24 07:11:02;;;;;;;6.45;0.90;;;4.70;99.90;;;;;;4734891;30;20557;-88
2020/12/24 07:13:41;;;;;;;7.30;1.25;;;4.50;99.90;;;;;;4734508;30;20047;-86
2020/12/24 07:16:09;;;;;;;11.02;1.15;;;4.50;99.90;;;;;;4749109;30;20064;-85
2020/12/24 07:18:37;;;;;;;9.40;1.17;;;4.60;99.90;;;;;;4737056;30;20052;-86
2020/12/24 07:21:08;;;;;;;8.77;1.20;;;4.60;99.90;;;;;;4734283;30;20127;-86
2020/12/24 07:23:37;;;;;;;;;;;4.50;99.90;;;;;;4735223;30;20059;-87
2020/12/24 07:26:06;;;;;;;5.15;0.90;;;4.60;99.90;;;;;;4733728;30;19930;-85
2020/12/24 07:28:34;;;;;;;7.72;1.25;;;4.60;99.90;;;;;;4714250;30;20495;-85
2020/12/24 07:31:05;;;;;;;13.20;1.55;;;4.60;99.90;;;;;;4750606;30;20056;-85
2020/12/24 07:33:32;;;;;;;12.02;1.38;;;4.70;99.90;;;;;;4734603;30;20067;-87
2020/12/24 07:35:59;;;;;;;14.40;1.00;;;4.60;99.90;;;;;;4720993;30;20044;-86
2020/12/24 07:38:27;;;;;;;15.75;1.58;;;4.60;99.90;;;;;;4747343;30;20048;-89
2020/12/24 07:40:54;;;;;;;15.00;1.40;;;4.60;99.90;;;;;;4748970;30;20131;-86
2020/12/24 07:43:20;;;;;;;18.95;2.65;;;4.60;99.90;;;;;;4720377;30;20127;-85
2020/12/24 07:45:45;;;;;;;15.20;3.10;;;4.50;99.90;;;;;;4734370;30;20667;-85
2020/12/24 07:48:12;;;;;;;16.60;3.53;;;4.40;99.90;;;;;;4728686;30;20131;-85
2020/12/24 07:50:38;;;;;;;22.80;3.13;;;4.30;99.90;;;;;;4749776;30;20402;-87
2020/12/24 07:53:04;;;;;;;24.75;2.88;;;4.30;99.90;;;;;;4748959;30;20056;-86
2020/12/24 07:55:30;;;;;;;25.77;2.15;;;4.30;99.90;;;;;;4733859;30;20063;-87
2020/12/24 07:58:06;;;;;;;33.15;3.22;;;4.50;99.90;;;;;;4719616;30;20121;-86
2020/12/24 08:00:42;;;;;;;18.73;2.42;;;4.70;99.90;;;;;;4719276;30;20060;-88
2020/12/24 08:03:08;;;;;;;27.77;3.10;;;4.90;99.90;;;;;;4750084;30;20047;-86
2020/12/24 08:05:34;;;;;;;16.60;1.75;;;5.10;99.90;;;;;;4734407;30;20080;-86
2020/12/24 08:08:00;;;;;;;23.10;2.67;;;5.10;99.90;;;;;;4719650;30;20052;-87
2020/12/24 08:10:26;;;;;;;21.48;2.50;;;5.20;99.90;;;;;;4732987;30;20101;-89
2020/12/24 08:12:52;;;;;;;21.67;1.75;;;5.20;99.90;;;;;;4716124;30;20040;-85
2020/12/24 08:15:19;;;;;;;4.50;0.82;;;5.20;99.90;;;;;;4733917;30;20127;-86
2020/12/24 08:18:05;;;;;;;23.98;2.45;;;5.20;99.90;;;;;;4757028;30;20058;-85
2020/12/24 08:20:49;;;;;;;20.88;2.53;;;5.10;99.90;;;;;;4727116;30;20127;-90
2020/12/24 08:23:42;;;;;;;22.20;2.50;;;5.20;99.90;;;;;;4749153;30;20370;-84
2020/12/24 08:26:10;;;;;;;25.98;1.95;;;5.20;99.90;;;;;;4722073;30;20119;-86
2020/12/24 08:28:38;;;;;;;15.85;2.65;;;5.10;99.90;;;;;;4748895;30;20433;-87
2020/12/24 08:31:08;;;;;;;20.85;2.50;;;5.10;99.90;;;;;;4736850;30;20048;-85
2020/12/24 08:33:35;;;;;;;23.30;2.10;;;5.10;99.90;;;;;;4749062;30;20055;-85
2020/12/24 08:36:14;;;;;;;11.38;1.85;;;5.10;99.90;;;;;;4733854;30;20052;-87
2020/12/24 08:38:40;;;;;;;19.67;2.60;;;5.10;99.90;;;;;;4732992;30;20056;-86
2020/12/24 08:41:06;;;;;;;22.08;2.38;;;5.10;99.90;;;;;;4733489;30;20048;-86
2020/12/24 08:43:32;;;;;;;19.95;2.25;;;5.10;99.90;;;;;;4719024;30;20526;-89
2020/12/24 08:45:58;;;;;;;17.30;2.13;;;5.10;99.90;;;;;;4749477;30;20044;-86
2020/12/24 08:48:29;;;;;;;13.27;2.10;;;5.10;99.90;;;;;;4733865;30;20054;-87
2020/12/24 08:50:55;;;;;;;16.13;2.00;;;5.10;99.90;;;;;;4748581;30;20052;-86
2020/12/24 08:53:22;;;;;;;13.25;1.60;;;5.30;99.90;;;;;;4718700;30;20519;-85
2020/12/24 08:55:48;;;;;;;24.42;2.10;;;5.30;99.90;;;;;;4748564;30;20048;-86
2020/12/24 08:58:14;;;;;;;24.35;2.92;;;5.30;99.90;;;;;;4718825;30;20421;-86
2020/12/24 09:00:39;;;;;;;10.82;1.10;;;5.30;99.90;;;;;;4735711;30;20056;-85
2020/12/24 09:03:21;;;;;;;11.38;1.52;;;5.40;99.90;;;;;;4719563;30;20135;-86
2020/12/24 09:05:47;;;;;;;19.52;1.55;;;5.40;99.90;;;;;;4739627;30;20073;-86
2020/12/24 09:08:24;;;;;;;13.27;1.27;;;5.50;99.80;;;;;;4735405;30;20083;-86
2020/12/24 09:10:50;;;;;;;10.13;1.10;;;5.50;99.90;;;;;;4746573;30;20074;-86
2020/12/24 09:13:17;;;;;;;10.60;1.45;;;5.60;99.70;;;;;;4750543;30;20083;-85
2020/12/24 09:15:43;;;;;;;12.50;1.40;;;5.60;99.90;;;;;;4705708;30;20417;-86
2020/12/24 09:18:09;;;;;;;20.55;1.30;;;5.70;99.90;;;;;;4735646;30;20048;-88
2020/12/24 09:20:35;;;;;;;10.52;1.35;;;5.80;99.50;;;;;;4721422;30;20051;-90
2020/12/24 09:23:08;;;;;;;11.25;2.53;;;5.90;99.90;;;;;;4751550;30;20127;-87
2020/12/24 09:25:41;;;;;;;10.43;1.38;;;5.90;99.90;;;;;;4736552;30;20054;-89
2020/12/24 09:28:21;;;;;;;15.10;1.70;;;5.90;99.90;;;;;;4752330;30;20052;-87
2020/12/24 09:30:47;;;;;;;;;;;5.90;99.90;;;;;;4722285;30;20530;-86
2020/12/24 09:33:13;;;;;;;9.52;0.90;;;5.90;99.90;;;;;;4736161;30;19962;-87
2020/12/24 09:35:39;;;;;;;14.68;1.23;;;5.80;99.90;;;;;;4735617;30;20528;-86
2020/12/24 09:38:05;;;;;;;13.27;1.33;;;5.80;99.80;;;;;;4721569;30;20718;-88
2020/12/24 09:40:31;;;;;;;12.30;1.58;;;5.80;99.20;;;;;;4735591;30;20048;-86
2020/12/24 09:42:57;;;;;;;19.70;1.55;;;5.80;99.90;;;;;;4750974;30;20492;-90
2020/12/24 09:45:23;;;;;;;7.18;0.90;;;5.90;99.70;;;;;;4751864;30;20497;-86
2020/12/24 09:47:50;;;;;;;10.52;1.17;;;5.90;98.90;;;;;;4729135;30;20048;-87
2020/12/24 09:50:16;;;;;;;17.80;1.65;;;5.80;99.90;;;;;;4736438;30;20393;-86
2020/12/24 09:52:42;;;;;;;18.25;2.05;;;5.80;99.60;;;;;;4735249;30;20055;-86
2020/12/24 09:55:08;;;;;;;12.07;1.67;;;5.70;99.80;;;;;;4751361;30;20045;-86
2020/12/24 09:57:34;;;;;;;14.80;1.88;;;5.80;99.10;;;;;;4736099;30;20044;-86
2020/12/24 10:00:03;;;;;;;12.55;1.42;;;5.90;99.60;;;;;;4735149;30;20133;-86
2020/12/24 10:02:29;;;;;;;17.27;1.67;;;5.70;99.90;;;;;;4736050;30;20079;-87
2020/12/24 10:04:54;;;;;;;21.73;1.88;;;5.70;99.90;;;;;;4734883;30;20072;-86
2020/12/24 10:07:24;;;;;;;16.70;1.45;;;5.80;99.90;;;;;;4721249;30;20048;-86
2020/12/24 10:09:51;;;;;;;15.10;1.92;;;5.70;99.90;;;;;;4735283;30;20052;-87
2020/12/24 10:12:21;;;;;;;14.18;1.92;;;5.90;99.90;;;;;;4735431;30;20064;-86
2020/12/24 10:14:47;;;;;;;17.73;2.60;;;5.90;99.40;;;;;;4735087;30;20055;-86
2020/12/24 10:17:14;;;;;;;11.98;1.92;;;5.90;99.30;;;;;;4722116;30;20655;-89
2020/12/24 10:19:43;;;;;;;14.73;1.48;;;5.90;98.90;;;;;;4735093;30;20493;-91
2020/12/24 10:22:09;;;;;;;15.52;1.25;;;5.80;99.60;;;;;;4720442;30;20079;-87
2020/12/24 10:24:36;;;;;;;13.43;1.05;;;5.90;99.40;;;;;;4735070;30;20504;-87
2020/12/24 10:27:02;;;;;;;6.63;1.33;;;5.90;99.60;;;;;;4719806;30;20074;-87
2020/12/24 10:29:28;;;;;;;7.30;1.00;;;6.00;98.90;;;;;;4720992;30;20048;-86
2020/12/24 10:31:54;;;;;;;11.75;1.58;;;6.10;98.70;;;;;;4734626;30;20048;-87
2020/12/24 10:34:20;;;;;;;10.55;1.13;;;6.00;98.30;;;;;;4736273;30;20067;-87
2020/12/24 10:36:46;;;;;;;5.15;0.80;;;6.00;98.70;;;;;;4717521;30;20052;-90
2020/12/24 10:39:12;;;;;;;8.50;1.23;;;6.00;97.50;;;;;;4749591;30;20753;-87
2020/12/24 10:41:39;;;;;;;5.78;0.95;;;6.10;97.70;;;;;;4733843;30;20056;-88
2020/12/24 10:44:05;;;;;;;16.30;2.83;;;6.10;97.50;;;;;;4732438;30;20048;-90
2020/12/24 10:46:32;;;;;;;4.45;0.80;;;6.20;97.10;;;;;;4733267;30;20056;-89
2020/12/24 10:48:58;;;;;;;7.18;0.50;;;6.30;97.50;;;;;;4748221;30;20064;-89
2020/12/24 10:51:24;;;;;;;1.85;0.40;;;6.30;97.90;;;;;;4744293;30;20135;-90
2020/12/24 10:53:50;;;;;;;3.55;0.43;;;6.10;96.60;;;;;;4733719;30;20088;-90
2020/12/24 10:56:16;;;;;;;1.00;0.40;;;5.90;97.60;;;;;;4720049;30;20123;-89
2020/12/24 10:58:42;;;;;;;6.80;0.57;;;5.70;97.50;;;;;;4749770;30;20064;-92
2020/12/24 11:01:10;;;;;;;7.03;1.35;;;5.80;98.00;;;;;;4733980;30;20052;-87
2020/12/24 11:03:37;;;;;;;10.48;0.98;;;5.80;97.80;;;;;;4719721;30;20067;-88
2020/12/24 11:06:07;;;;;;;7.65;0.77;;;5.70;97.40;;;;;;4747227;30;20184;-89
2020/12/24 11:08:33;;;;;;;17.67;1.38;;;5.80;98.20;;;;;;4745911;30;20089;-89
2020/12/24 11:10:59;;;;;;;9.65;2.55;;;5.70;98.80;;;;;;4745184;30;20051;-89
2020/12/24 11:13:25;;;;;;;12.13;1.40;;;5.80;99.20;;;;;;4734147;30;20048;-90
2020/12/24 11:15:52;;;;;;;11.68;1.52;;;5.80;99.20;;;;;;4717352;30;20067;-88
2020/12/24 11:18:20;;;;;;;10.40;1.27;;;5.80;99.10;;;;;;4732498;30;20048;-88
2020/12/24 11:20:46;;;;;;;10.75;1.40;;;5.80;99.40;;;;;;4737421;30;20101;-90
2020/12/24 11:23:11;;;;;;;16.58;1.95;;;5.80;99.90;;;;;;4741935;30;20044;-89
2020/12/24 11:25:37;;;;;;;19.75;1.80;;;5.90;99.50;;;;;;4721799;30;20064;-89
2020/12/24 11:28:04;;;;;;;16.63;3.17;;;6.00;99.40;;;;;;4733806;30;20084;-89
2020/12/24 11:30:31;;;;;;;13.98;1.17;;;6.00;99.40;;;;;;4706058;30;20153;-89
2020/12/24 11:32:58;;;;;;;20.08;2.03;;;6.10;99.50;;;;;;4719087;30;20052;-89
2020/12/24 11:35:24;;;;;;;14.77;0.95;;;6.10;99.40;;;;;;4749898;30;20135;-89
2020/12/24 11:37:49;;;;;;;11.55;1.20;;;6.20;99.20;;;;;;4751969;30;20055;-88
2020/12/24 11:40:15;;;;;;;12.52;1.50;;;6.20;99.00;;;;;;4718173;30;20559;-88
2020/12/24 11:42:41;;;;;;;14.63;2.03;;;6.20;98.70;;;;;;4730977;30;20047;-87
2020/12/24 11:45:07;;;;;;;14.15;1.75;;;6.20;98.30;;;;;;4732965;30;20070;-89
2020/12/24 11:47:34;;;;;;;15.88;2.25;;;6.30;98.20;;;;;;4718139;30;20532;-87
2020/12/24 11:50:01;;;;;;;12.80;1.40;;;6.30;98.50;;;;;;4745888;30;20502;-86
2020/12/24 11:52:27;;;;;;;9.38;1.35;;;6.30;98.70;;;;;;4747242;30;20386;-85
2020/12/24 11:54:52;;;;;;;13.73;1.73;;;6.30;97.50;;;;;;4746555;30;20063;-86
2020/12/24 11:57:18;;;;;;;17.45;2.05;;;6.10;97.00;;;;;;4716617;30;20051;-84
2020/12/24 11:59:44;;;;;;;12.80;1.88;;;6.20;98.10;;;;;;4731693;30;20064;-85
2020/12/24 12:02:10;;;;;;;23.08;2.28;;;6.20;98.40;;;;;;4716642;30;20045;-87
2020/12/24 12:04:35;;;;;;;17.33;1.70;;;6.20;98.20;;;;;;4747233;30;20051;-87
2020/12/24 12:07:02;;;;;;;21.08;1.83;;;6.30;98.70;;;;;;4746658;30;20120;-88
2020/12/24 12:09:28;;;;;;;16.02;2.08;;;6.30;98.70;;;;;;4716683;30;20049;-86
2020/12/24 12:11:54;;;;;;;13.02;2.25;;;6.30;97.70;;;;;;4715657;30;20087;-87
2020/12/24 12:14:19;;;;;;;21.17;2.42;;;6.40;98.00;;;;;;4731147;30;20067;-86
2020/12/24 12:16:47;;;;;;;17.40;1.83;;;6.40;97.40;;;;;;4747820;30;20048;-87
2020/12/24 12:19:13;;;;;;;13.18;1.55;;;6.40;97.90;;;;;;4731388;30;20497;-87
2020/12/24 12:21:39;;;;;;;13.18;1.67;;;6.50;97.70;;;;;;4717553;30;20056;-86
2020/12/24 12:24:04;;;;;;;12.25;1.45;;;6.50;97.80;;;;;;4731660;30;20059;-87
2020/12/24 12:26:30;;;;;;;19.67;2.53;;;6.50;96.90;;;;;;4731674;30;20424;-86
2020/12/24 12:28:57;;;;;;;19.60;2.35;;;6.50;97.10;;;;;;4747575;30;20056;-86
2020/12/24 12:31:24;;;;;;;16.50;2.00;;;6.50;97.20;;;;;;4740334;30;20460;-87
2020/12/24 12:33:51;;;;;;;9.95;1.35;;;6.50;97.40;;;;;;4749604;30;20044;-89
2020/12/24 12:36:20;;;;;;;13.15;2.30;;;6.60;96.60;;;;;;4735700;30;20052;-86
2020/12/24 12:38:47;;;;;;;8.88;1.45;;;6.60;96.90;;;;;;4752496;30;20052;-86
2020/12/24 12:41:15;;;;;;;14.38;1.50;;;6.70;96.40;;;;;;4735215;30;20179;-85
2020/12/24 12:43:42;;;;;;;18.58;1.65;;;6.50;97.00;;;;;;4752382;30;20052;-86
2020/12/24 12:46:08;;;;;;;19.65;1.95;;;6.60;96.70;;;;;;4735302;30;20044;-86
2020/12/24 12:48:35;;;;;;;4.60;0.88;;;6.60;96.60;;;;;;4721826;30;20482;-86
2020/12/24 12:51:02;;;;;;;12.10;1.63;;;6.70;96.60;;;;;;4735225;30;20504;-86
2020/12/24 12:53:28;;;;;;;9.32;1.35;;;6.50;96.30;;;;;;4736696;30;20508;-89
2020/12/24 12:55:55;;;;;;;7.95;1.05;;;6.40;95.80;;;;;;4706559;30;20056;-88